Al Cenac — WDD5445 — position and weather

sailwx.info

Track history (hours):
 
Tides and Currents Weather Stations Pressure Air Temp Water Temp Dewpoint Dewpoint Depression Visibility Wind Speed Wind Dir Waves Ship Positions

Al Cenac

Owner: Caillou Island Towing Co, Inc., Houma, LA. More information available from US FCC via Universal Licensing System and Coast Guard Vessel Documentation Center.

Last reported at 2015-Jul-03 03:22 UTC. Time now 2015-Jul-03 10:34 UTC.
Position N 40°33' W 074°14'.

; draft 10 m.

MMSI: 367158530.

Date/timePositionNaut miles runAvg speedWind from/ knotsBaromVisibWave heightAir tempDewpointWater temp
2015-Jul-03 03:22N 40°33' W 074°14'0 0.0
2015-Jul-03 00:21N 40°33' W 074°14'0 0.5
2015-Jul-02 23:25N 40°34' W 074°14'6 6.8
2015-Jul-02 22:33N 40°39' W 074°10'2 1.8
2015-Jul-02 21:28N 40°38' W 074°08'0 0.0
2015-Jul-02 19:23N 40°38' W 074°08'0 0.0
2015-Jul-02 18:24N 40°38' W 074°08'0 0.0
2015-Jul-02 17:30N 40°38' W 074°08'0 0.0
2015-Jul-02 16:31N 40°38' W 074°08'0 0.0
2015-Jul-02 15:26N 40°38' W 074°08'0 0.0
2015-Jul-02 14:26N 40°38' W 074°08'0 0.0
2015-Jul-02 13:27N 40°38' W 074°08'0 0.0
2015-Jul-02 12:28N 40°38' W 074°08'0 0.0
2015-Jul-02 11:28N 40°38' W 074°08'0 0.1
2015-Jul-02 10:32N 40°39' W 074°08'3 3.0
2015-Jul-02 09:26N 40°38' W 074°12'2 2.5
2015-Jul-02 08:33N 40°39' W 074°10'1 1.2
2015-Jul-02 07:28N 40°38' W 074°08'0 0.0
2015-Jul-02 05:12N 40°38' W 074°08'0 0.0
2015-Jul-02 03:34N 40°38' W 074°08'1 1.0
2015-Jul-02 02:31N 40°39' W 074°07'0 0.0
2015-Jul-02 01:29N 40°39' W 074°07'3 3.2
2015-Jul-02 00:34N 40°39' W 074°10'2 0.3
2015-Jul-01 16:28N 40°37' W 074°12'4 0.5
2015-Jul-01 09:33N 40°39' W 074°08'3 3.2
2015-Jul-01 08:31N 40°38' W 074°12'4 4.2
2015-Jul-01 07:33N 40°39' W 074°07'0 0.0
2015-Jul-01 06:31N 40°39' W 074°07'1 1.1
2015-Jul-01 05:33N 40°39' W 074°06'5 4.9
2015-Jul-01 04:33N 40°42' W 074°00'0 0.4
2015-Jul-01 03:33N 40°41' W 074°00'6 5.8
2015-Jul-01 02:29N 40°38' W 074°08'0 0.0
2015-Jul-01 01:32N 40°38' W 074°08'0 0.0
2015-Jul-01 00:33N 40°38' W 074°08'0 0.0
2015-Jun-30 22:19N 40°38' W 074°08'0 0.0
2015-Jun-30 21:08N 40°38' W 074°08'0 0.0
2015-Jun-30 20:32N 40°38' W 074°08'0 0.0
2015-Jun-30 19:24N 40°38' W 074°08'0 0.0
2015-Jun-30 18:31N 40°38' W 074°08'0 0.0
2015-Jun-30 17:31N 40°38' W 074°08'0 0.0
2015-Jun-30 16:17N 40°38' W 074°08'0 0.0
2015-Jun-30 15:12N 40°38' W 074°08'0 0.0
2015-Jun-30 14:33N 40°38' W 074°08'0 0.0
2015-Jun-30 13:04N 40°38' W 074°08'0 0.0
2015-Jun-30 12:29N 40°38' W 074°08'2 1.7
2015-Jun-30 11:31N 40°39' W 074°10'0 0.0
2015-Jun-30 10:32N 40°39' W 074°10'0 0.0
2015-Jun-30 09:32N 40°39' W 074°10'0 0.0
2015-Jun-30 08:33N 40°39' W 074°10'0 0.0
2015-Jun-30 07:33N 40°39' W 074°10'0 0.0
2015-Jun-30 06:31N 40°39' W 074°10'4 3.2
2015-Jun-30 05:17N 40°35' W 074°13'1 0.3
2015-Jun-30 02:32N 40°36' W 074°12'7 7.0
2015-Jun-30 01:34N 40°39' W 074°04'10 8.6
2015-Jun-30 00:24N 40°47' W 073°56'3 3.5
2015-Jun-29 23:31N 40°47' W 073°52'1 0.6
2015-Jun-29 21:21N 40°46' W 073°51'5 6.6
2015-Jun-29 20:33N 40°45' W 073°57'9 9.3
2015-Jun-29 19:33N 40°39' W 074°06'1 1.1
2015-Jun-29 18:16N 40°38' W 074°08'0 0.0
2015-Jun-29 17:17N 40°38' W 074°08'0 0.0
2015-Jun-29 16:09N 40°38' W 074°08'0 0.0
2015-Jun-29 15:15N 40°38' W 074°08'0 0.0
2015-Jun-29 06:28N 40°38' W 074°08'4 4.9
2015-Jun-29 05:33N 40°39' W 074°02'2 1.7
2015-Jun-29 04:33N 40°40' W 074°00'6 5.8
2015-Jun-29 03:30N 40°38' W 074°08'3 0.6
2015-Jun-28 22:33N 40°38' W 074°11'1 0.7
2015-Jun-28 21:12N 40°38' W 074°12'0 0.2
2015-Jun-28 19:33N 40°38' W 074°12'3 3.0
2015-Jun-28 18:31N 40°38' W 074°08'0 0.0
2015-Jun-28 17:32N 40°38' W 074°08'0 0.0
2015-Jun-28 16:32N 40°38' W 074°08'0 0.0
2015-Jun-28 15:33N 40°38' W 074°08'0 0.0
2015-Jun-28 14:22N 40°38' W 074°08'0 0.0
2015-Jun-28 13:11N 40°38' W 074°08'0 0.0
2015-Jun-28 10:08N 40°38' W 074°08'0 0.0
2015-Jun-28 09:32N 40°38' W 074°08'0 0.0
2015-Jun-28 08:33N 40°38' W 074°08'0 0.0
2015-Jun-28 07:16N 40°38' W 074°08'1 0.2
2015-Jun-28 02:33N 40°39' W 074°07'10 9.9
2015-Jun-28 01:33N 40°46' W 073°57'5 3.9
2015-Jun-28 00:18N 40°46' W 073°51'3 3.8
2015-Jun-27 23:32N 40°48' W 073°53'6 5.6
2015-Jun-27 22:33N 40°44' W 073°58'5 5.5
2015-Jun-27 21:34N 40°40' W 074°03'4 4.0
2015-Jun-27 20:32N 40°38' W 074°08'0 0.0
2015-Jun-27 19:24N 40°38' W 074°08'3 3.9
2015-Jun-27 18:33N 40°39' W 074°04'3 2.7
2015-Jun-27 17:33N 40°40' W 074°00'6 5.4
2015-Jun-27 16:29N 40°39' W 074°08'4 3.5
2015-Jun-27 15:28N 40°38' W 074°12'0 0.1
2015-Jun-27 13:23N 40°38' W 074°12'1 0.6
2015-Jun-27 12:33N 40°38' W 074°12'3 2.6
2015-Jun-27 11:23N 40°38' W 074°08'0 0.0
2015-Jun-27 10:11N 40°38' W 074°08'0 0.0
2015-Jun-27 09:30N 40°38' W 074°08'0 0.0
2015-Jun-27 08:19N 40°38' W 074°08'0 0.0
2015-Jun-27 07:31N 40°38' W 074°08'0 0.0
2015-Jun-27 06:32N 40°38' W 074°08'0 0.0
2015-Jun-27 05:30N 40°38' W 074°08'0 0.0
2015-Jun-27 04:33N 40°38' W 074°08'0 0.0
2015-Jun-27 03:28N 40°38' W 074°08'0 0.0
2015-Jun-27 02:29N 40°38' W 074°08'0 0.0
2015-Jun-27 01:11N 40°38' W 074°08'0 0.0
2015-Jun-27 00:06N 40°38' W 074°08'2 4.4
2015-Jun-26 23:33N 40°39' W 074°11'1 0.4
2015-Jun-26 20:33N 40°38' W 074°12'1 0.6
2015-Jun-26 18:33N 40°39' W 074°11'3 2.4
2015-Jun-26 17:29N 40°38' W 074°08'0 0.0
2015-Jun-26 16:30N 40°38' W 074°08'0 0.0
2015-Jun-26 15:24N 40°38' W 074°08'0 0.0
2015-Jun-26 14:25N 40°38' W 074°08'0 0.0
2015-Jun-26 13:26N 40°38' W 074°08'0 0.0
2015-Jun-26 12:32N 40°38' W 074°08'3 3.3
2015-Jun-26 11:33N 40°39' W 074°04'1110.5
2015-Jun-26 10:32N 40°47' W 073°55'1 0.9
2015-Jun-26 09:31N 40°48' W 073°54'0 0.0
2015-Jun-26 08:28N 40°48' W 073°54'8 8.4
2015-Jun-26 07:34N 40°42' W 074°00'7 1.3
2015-Jun-26 02:32N 40°38' W 074°08'3 0.5
2015-Jun-25 20:34N 40°38' W 074°12'3 3.0
2015-Jun-25 19:32N 40°38' W 074°08'3 3.3
2015-Jun-25 18:30N 40°38' W 074°12'1 0.6
2015-Jun-25 16:17N 40°36' W 074°12'2 2.1
2015-Jun-25 15:30N 40°38' W 074°12'7 6.8
2015-Jun-25 14:33N 40°39' W 074°04'4 3.4
2015-Jun-25 13:31N 40°41' W 074°00'0 0.0
2015-Jun-25 12:33N 40°41' W 074°00'6 6.4
2015-Jun-25 11:33N 40°38' W 074°08'0 0.0
2015-Jun-25 10:29N 40°38' W 074°08'0 0.0
2015-Jun-25 09:30N 40°38' W 074°08'0 0.0
2015-Jun-25 08:31N 40°38' W 074°08'0 0.0
2015-Jun-25 07:31N 40°38' W 074°08'0 0.0
2015-Jun-25 06:26N 40°38' W 074°08'0 0.0
2015-Jun-25 05:33N 40°38' W 074°08'0 0.0
2015-Jun-25 03:28N 40°38' W 074°08'0 0.0
2015-Jun-25 02:23N 40°38' W 074°08'0 0.0
2015-Jun-25 01:29N 40°38' W 074°08'0 0.0
2015-Jun-25 00:31N 40°38' W 074°08'0 0.0
2015-Jun-24 23:31N 40°38' W 074°08'0 0.0
2015-Jun-24 22:26N 40°38' W 074°08'0 0.0
2015-Jun-24 20:21N 40°38' W 074°08'0 0.0
2015-Jun-24 19:28N 40°38' W 074°08'0 0.0
2015-Jun-24 18:28N 40°38' W 074°08'0 0.0
2015-Jun-24 17:23N 40°38' W 074°08'0 0.0
2015-Jun-24 16:30N 40°38' W 074°08'0 0.0
2015-Jun-24 15:30N 40°38' W 074°08'0 0.0
2015-Jun-24 14:28N 40°38' W 074°08'1 1.2
2015-Jun-24 13:33N 40°39' W 074°07'1 1.1
2015-Jun-24 12:32N 40°38' W 074°08'0 0.0
2015-Jun-24 11:33N 40°38' W 074°08'0 0.0
2015-Jun-24 10:28N 40°38' W 074°08'0 0.0
2015-Jun-24 09:28N 40°38' W 074°08'0 0.0
2015-Jun-24 08:23N 40°38' W 074°08'2 2.4
2015-Jun-24 07:32N 40°39' W 074°11'0 0.0
2015-Jun-23 23:34N 40°39' W 074°11'4 2.7
2015-Jun-23 22:10N 40°35' W 074°12'1 1.4
2015-Jun-23 21:09N 40°37' W 074°12'4 5.9
2015-Jun-23 20:30N 40°38' W 074°08'0 0.0
2015-Jun-23 19:29N 40°38' W 074°08'0 0.0
2015-Jun-23 18:59N 40°38' W 074°08'  
Track history (hours):
 
Tides and Currents Weather Stations Pressure Air Temp Water Temp Dewpoint Dewpoint Depression Visibility Wind Speed Wind Dir Waves Ship Positions

Al Cenac

Owner: Caillou Island Towing Co, Inc., Houma, LA. More information available from US FCC via Universal Licensing System and Coast Guard Vessel Documentation Center.

Last reported at 2015-Jul-03 03:22 UTC. Time now 2015-Jul-03 10:34 UTC.
Position N 40°33' W 074°14'.

; draft 10 m.

MMSI: 367158530.

Date/timePositionNaut miles runAvg speedWind from/ knotsBaromVisibWave heightAir tempDewpointWater temp
2015-Jul-03 03:22N 40°33' W 074°14'0 0.0
2015-Jul-03 00:21N 40°33' W 074°14'0 0.5
2015-Jul-02 23:25N 40°34' W 074°14'6 6.8
2015-Jul-02 22:33N 40°39' W 074°10'2 1.8
2015-Jul-02 21:28N 40°38' W 074°08'0 0.0
2015-Jul-02 19:23N 40°38' W 074°08'0 0.0
2015-Jul-02 18:24N 40°38' W 074°08'0 0.0
2015-Jul-02 17:30N 40°38' W 074°08'0 0.0
2015-Jul-02 16:31N 40°38' W 074°08'0 0.0
2015-Jul-02 15:26N 40°38' W 074°08'0 0.0
2015-Jul-02 14:26N 40°38' W 074°08'0 0.0
2015-Jul-02 13:27N 40°38' W 074°08'0 0.0
2015-Jul-02 12:28N 40°38' W 074°08'0 0.0
2015-Jul-02 11:28N 40°38' W 074°08'0 0.1
2015-Jul-02 10:32N 40°39' W 074°08'3 3.0
2015-Jul-02 09:26N 40°38' W 074°12'2 2.5
2015-Jul-02 08:33N 40°39' W 074°10'1 1.2
2015-Jul-02 07:28N 40°38' W 074°08'0 0.0
2015-Jul-02 05:12N 40°38' W 074°08'0 0.0
2015-Jul-02 03:34N 40°38' W 074°08'1 1.0
2015-Jul-02 02:31N 40°39' W 074°07'0 0.0
2015-Jul-02 01:29N 40°39' W 074°07'3 3.2
2015-Jul-02 00:34N 40°39' W 074°10'2 0.3
2015-Jul-01 16:28N 40°37' W 074°12'4 0.5
2015-Jul-01 09:33N 40°39' W 074°08'3 3.2
2015-Jul-01 08:31N 40°38' W 074°12'4 4.2
2015-Jul-01 07:33N 40°39' W 074°07'0 0.0
2015-Jul-01 06:31N 40°39' W 074°07'1 1.1
2015-Jul-01 05:33N 40°39' W 074°06'5 4.9
2015-Jul-01 04:33N 40°42' W 074°00'0 0.4
2015-Jul-01 03:33N 40°41' W 074°00'6 5.8
2015-Jul-01 02:29N 40°38' W 074°08'0 0.0
2015-Jul-01 01:32N 40°38' W 074°08'0 0.0
2015-Jul-01 00:33N 40°38' W 074°08'0 0.0
2015-Jun-30 22:19N 40°38' W 074°08'0 0.0
2015-Jun-30 21:08N 40°38' W 074°08'0 0.0
2015-Jun-30 20:32N 40°38' W 074°08'0 0.0
2015-Jun-30 19:24N 40°38' W 074°08'0 0.0
2015-Jun-30 18:31N 40°38' W 074°08'0 0.0
2015-Jun-30 17:31N 40°38' W 074°08'0 0.0
2015-Jun-30 16:17N 40°38' W 074°08'0 0.0
2015-Jun-30 15:12N 40°38' W 074°08'0 0.0
2015-Jun-30 14:33N 40°38' W 074°08'0 0.0
2015-Jun-30 13:04N 40°38' W 074°08'0 0.0
2015-Jun-30 12:29N 40°38' W 074°08'2 1.7
2015-Jun-30 11:31N 40°39' W 074°10'0 0.0
2015-Jun-30 10:32N 40°39' W 074°10'0 0.0
2015-Jun-30 09:32N 40°39' W 074°10'0 0.0
2015-Jun-30 08:33N 40°39' W 074°10'0 0.0
2015-Jun-30 07:33N 40°39' W 074°10'0 0.0
2015-Jun-30 06:31N 40°39' W 074°10'4 3.2
2015-Jun-30 05:17N 40°35' W 074°13'1 0.3
2015-Jun-30 02:32N 40°36' W 074°12'7 7.0
2015-Jun-30 01:34N 40°39' W 074°04'10 8.6
2015-Jun-30 00:24N 40°47' W 073°56'3 3.5
2015-Jun-29 23:31N 40°47' W 073°52'1 0.6
2015-Jun-29 21:21N 40°46' W 073°51'5 6.6
2015-Jun-29 20:33N 40°45' W 073°57'9 9.3
2015-Jun-29 19:33N 40°39' W 074°06'1 1.1
2015-Jun-29 18:16N 40°38' W 074°08'0 0.0
2015-Jun-29 17:17N 40°38' W 074°08'0 0.0
2015-Jun-29 16:09N 40°38' W 074°08'0 0.0
2015-Jun-29 15:15N 40°38' W 074°08'0 0.0
2015-Jun-29 06:28N 40°38' W 074°08'4 4.9
2015-Jun-29 05:33N 40°39' W 074°02'2 1.7
2015-Jun-29 04:33N 40°40' W 074°00'6 5.8
2015-Jun-29 03:30N 40°38' W 074°08'3 0.6
2015-Jun-28 22:33N 40°38' W 074°11'1 0.7
2015-Jun-28 21:12N 40°38' W 074°12'0 0.2
2015-Jun-28 19:33N 40°38' W 074°12'3 3.0
2015-Jun-28 18:31N 40°38' W 074°08'0 0.0
2015-Jun-28 17:32N 40°38' W 074°08'0 0.0
2015-Jun-28 16:32N 40°38' W 074°08'0 0.0
2015-Jun-28 15:33N 40°38' W 074°08'0 0.0
2015-Jun-28 14:22N 40°38' W 074°08'0 0.0
2015-Jun-28 13:11N 40°38' W 074°08'0 0.0
2015-Jun-28 10:08N 40°38' W 074°08'0 0.0
2015-Jun-28 09:32N 40°38' W 074°08'0 0.0
2015-Jun-28 08:33N 40°38' W 074°08'0 0.0
2015-Jun-28 07:16N 40°38' W 074°08'1 0.2
2015-Jun-28 02:33N 40°39' W 074°07'10 9.9
2015-Jun-28 01:33N 40°46' W 073°57'5 3.9
2015-Jun-28 00:18N 40°46' W 073°51'3 3.8
2015-Jun-27 23:32N 40°48' W 073°53'6 5.6
2015-Jun-27 22:33N 40°44' W 073°58'5 5.5
2015-Jun-27 21:34N 40°40' W 074°03'4 4.0
2015-Jun-27 20:32N 40°38' W 074°08'0 0.0
2015-Jun-27 19:24N 40°38' W 074°08'3 3.9
2015-Jun-27 18:33N 40°39' W 074°04'3 2.7
2015-Jun-27 17:33N 40°40' W 074°00'6 5.4
2015-Jun-27 16:29N 40°39' W 074°08'4 3.5
2015-Jun-27 15:28N 40°38' W 074°12'0 0.1
2015-Jun-27 13:23N 40°38' W 074°12'1 0.6
2015-Jun-27 12:33N 40°38' W 074°12'3 2.6
2015-Jun-27 11:23N 40°38' W 074°08'0 0.0
2015-Jun-27 10:11N 40°38' W 074°08'0 0.0
2015-Jun-27 09:30N 40°38' W 074°08'0 0.0
2015-Jun-27 08:19N 40°38' W 074°08'0 0.0
2015-Jun-27 07:31N 40°38' W 074°08'0 0.0
2015-Jun-27 06:32N 40°38' W 074°08'0 0.0
2015-Jun-27 05:30N 40°38' W 074°08'0 0.0
2015-Jun-27 04:33N 40°38' W 074°08'0 0.0
2015-Jun-27 03:28N 40°38' W 074°08'0 0.0
2015-Jun-27 02:29N 40°38' W 074°08'0 0.0
2015-Jun-27 01:11N 40°38' W 074°08'0 0.0
2015-Jun-27 00:06N 40°38' W 074°08'2 4.4
2015-Jun-26 23:33N 40°39' W 074°11'1 0.4
2015-Jun-26 20:33N 40°38' W 074°12'1 0.6
2015-Jun-26 18:33N 40°39' W 074°11'3 2.4
2015-Jun-26 17:29N 40°38' W 074°08'0 0.0
2015-Jun-26 16:30N 40°38' W 074°08'0 0.0
2015-Jun-26 15:24N 40°38' W 074°08'0 0.0
2015-Jun-26 14:25N 40°38' W 074°08'0 0.0
2015-Jun-26 13:26N 40°38' W 074°08'0 0.0
2015-Jun-26 12:32N 40°38' W 074°08'3 3.3
2015-Jun-26 11:33N 40°39' W 074°04'1110.5
2015-Jun-26 10:32N 40°47' W 073°55'1 0.9
2015-Jun-26 09:31N 40°48' W 073°54'0 0.0
2015-Jun-26 08:28N 40°48' W 073°54'8 8.4
2015-Jun-26 07:34N 40°42' W 074°00'7 1.3
2015-Jun-26 02:32N 40°38' W 074°08'3 0.5
2015-Jun-25 20:34N 40°38' W 074°12'3 3.0
2015-Jun-25 19:32N 40°38' W 074°08'3 3.3
2015-Jun-25 18:30N 40°38' W 074°12'1 0.6
2015-Jun-25 16:17N 40°36' W 074°12'2 2.1
2015-Jun-25 15:30N 40°38' W 074°12'7 6.8
2015-Jun-25 14:33N 40°39' W 074°04'4 3.4
2015-Jun-25 13:31N 40°41' W 074°00'0 0.0
2015-Jun-25 12:33N 40°41' W 074°00'6 6.4
2015-Jun-25 11:33N 40°38' W 074°08'0 0.0
2015-Jun-25 10:29N 40°38' W 074°08'0 0.0
2015-Jun-25 09:30N 40°38' W 074°08'0 0.0
2015-Jun-25 08:31N 40°38' W 074°08'0 0.0
2015-Jun-25 07:31N 40°38' W 074°08'0 0.0
2015-Jun-25 06:26N 40°38' W 074°08'0 0.0
2015-Jun-25 05:33N 40°38' W 074°08'0 0.0
2015-Jun-25 03:28N 40°38' W 074°08'0 0.0
2015-Jun-25 02:23N 40°38' W 074°08'0 0.0
2015-Jun-25 01:29N 40°38' W 074°08'0 0.0
2015-Jun-25 00:31N 40°38' W 074°08'0 0.0
2015-Jun-24 23:31N 40°38' W 074°08'0 0.0
2015-Jun-24 22:26N 40°38' W 074°08'0 0.0
2015-Jun-24 20:21N 40°38' W 074°08'0 0.0
2015-Jun-24 19:28N 40°38' W 074°08'0 0.0
2015-Jun-24 18:28N 40°38' W 074°08'0 0.0
2015-Jun-24 17:23N 40°38' W 074°08'0 0.0
2015-Jun-24 16:30N 40°38' W 074°08'0 0.0
2015-Jun-24 15:30N 40°38' W 074°08'0 0.0
2015-Jun-24 14:28N 40°38' W 074°08'1 1.2
2015-Jun-24 13:33N 40°39' W 074°07'1 1.1
2015-Jun-24 12:32N 40°38' W 074°08'0 0.0
2015-Jun-24 11:33N 40°38' W 074°08'0 0.0
2015-Jun-24 10:28N 40°38' W 074°08'0 0.0
2015-Jun-24 09:28N 40°38' W 074°08'0 0.0
2015-Jun-24 08:23N 40°38' W 074°08'2 2.4
2015-Jun-24 07:32N 40°39' W 074°11'0 0.0
2015-Jun-23 23:34N 40°39' W 074°11'4 2.7
2015-Jun-23 22:10N 40°35' W 074°12'1 1.4
2015-Jun-23 21:09N 40°37' W 074°12'4 5.9
2015-Jun-23 20:30N 40°38' W 074°08'0 0.0
2015-Jun-23 19:29N 40°38' W 074°08'0 0.0
2015-Jun-23 18:59N 40°38' W 074°08'  

Dump ship's entire track history